sensor_id;sensor_type;location;lat;lon;timestamp;P1;durP1;ratioP1;P2;durP2;ratioP2
9108;SDS011;4590;51.462;6.692;2022-08-01T00:01:33;6.30;;;3.70;;
9108;SDS011;4590;51.462;6.692;2022-08-01T00:06:24;7.80;;;3.90;;
9108;SDS011;4590;51.462;6.692;2022-08-01T00:11:15;4.90;;;3.88;;
9108;SDS011;4590;51.462;6.692;2022-08-01T00:16:06;9.27;;;4.23;;
9108;SDS011;4590;51.462;6.692;2022-08-01T00:20:56;6.27;;;3.90;;
9108;SDS011;4590;51.462;6.692;2022-08-01T00:25:46;5.20;;;3.83;;
9108;SDS011;4590;51.462;6.692;2022-08-01T00:30:38;4.75;;;3.90;;
9108;SDS011;4590;51.462;6.692;2022-08-01T00:35:29;4.40;;;3.80;;
9108;SDS011;4590;51.462;6.692;2022-08-01T00:40:19;6.33;;;4.10;;
9108;SDS011;4590;51.462;6.692;2022-08-01T00:45:10;4.00;;;3.60;;
9108;SDS011;4590;51.462;6.692;2022-08-01T00:47:36;8.45;;;4.60;;
9108;SDS011;4590;51.462;6.692;2022-08-01T00:50:03;7.43;;;4.45;;
9108;SDS011;4590;51.462;6.692;2022-08-01T00:52:29;7.38;;;4.28;;
9108;SDS011;4590;51.462;6.692;2022-08-01T00:57:20;9.52;;;4.18;;
9108;SDS011;4590;51.462;6.692;2022-08-01T00:59:46;6.38;;;4.40;;
9108;SDS011;4590;51.462;6.692;2022-08-01T01:04:37;6.67;;;4.07;;
9108;SDS011;4590;51.462;6.692;2022-08-01T01:09:50;6.15;;;4.97;;
9108;SDS011;4590;51.462;6.692;2022-08-01T01:12:36;7.78;;;4.85;;
9108;SDS011;4590;51.462;6.692;2022-08-01T01:15:10;6.45;;;4.65;;
9108;SDS011;4590;51.462;6.692;2022-08-01T01:17:58;6.55;;;4.50;;
9108;SDS011;4590;51.462;6.692;2022-08-01T01:20:27;6.93;;;4.72;;
9108;SDS011;4590;51.462;6.692;2022-08-01T01:23:06;7.38;;;4.75;;
9108;SDS011;4590;51.462;6.692;2022-08-01T01:28:33;8.50;;;5.25;;
9108;SDS011;4590;51.462;6.692;2022-08-01T01:31:06;7.10;;;5.22;;
9108;SDS011;4590;51.462;6.692;2022-08-01T01:33:36;7.35;;;4.93;;
9108;SDS011;4590;51.462;6.692;2022-08-01T01:36:05;6.40;;;5.03;;
9108;SDS011;4590;51.462;6.692;2022-08-01T01:38:33;6.47;;;4.72;;
9108;SDS011;4590;51.462;6.692;2022-08-01T01:41:02;6.30;;;4.70;;
9108;SDS011;4590;51.462;6.692;2022-08-01T01:43:29;8.88;;;5.18;;
9108;SDS011;4590;51.462;6.692;2022-08-01T01:45:57;7.18;;;5.05;;
9108;SDS011;4590;51.462;6.692;2022-08-01T01:50:48;8.75;;;4.97;;
9108;SDS011;4590;51.462;6.692;2022-08-01T01:53:16;9.15;;;6.28;;
9108;SDS011;4590;51.462;6.692;2022-08-01T01:55:44;8.00;;;5.55;;
9108;SDS011;4590;51.462;6.692;2022-08-01T01:58:13;7.63;;;5.53;;
9108;SDS011;4590;51.462;6.692;2022-08-01T02:00:39;7.85;;;5.07;;
9108;SDS011;4590;51.462;6.692;2022-08-01T02:03:07;9.38;;;5.70;;
9108;SDS011;4590;51.462;6.692;2022-08-01T02:05:35;8.25;;;5.53;;
9108;SDS011;4590;51.462;6.692;2022-08-01T02:08:02;7.97;;;5.20;;
9108;SDS011;4590;51.462;6.692;2022-08-01T02:10:29;10.00;;;6.13;;
9108;SDS011;4590;51.462;6.692;2022-08-01T02:12:57;10.05;;;5.90;;
9108;SDS011;4590;51.462;6.692;2022-08-01T02:15:24;7.68;;;5.55;;
9108;SDS011;4590;51.462;6.692;2022-08-01T02:17:53;10.90;;;5.70;;
9108;SDS011;4590;51.462;6.692;2022-08-01T02:20:21;8.98;;;6.38;;
9108;SDS011;4590;51.462;6.692;2022-08-01T02:25:58;10.10;;;5.95;;
9108;SDS011;4590;51.462;6.692;2022-08-01T02:28:32;10.07;;;6.35;;
9108;SDS011;4590;51.462;6.692;2022-08-01T02:31:01;7.75;;;6.20;;
9108;SDS011;4590;51.462;6.692;2022-08-01T02:33:39;9.15;;;6.20;;
9108;SDS011;4590;51.462;6.692;2022-08-01T02:36:08;7.45;;;5.72;;
9108;SDS011;4590;51.462;6.692;2022-08-01T02:41:04;9.10;;;6.07;;
9108;SDS011;4590;51.462;6.692;2022-08-01T02:43:34;10.05;;;6.70;;
9108;SDS011;4590;51.462;6.692;2022-08-01T02:46:06;10.88;;;6.90;;
9108;SDS011;4590;51.462;6.692;2022-08-01T02:48:34;9.73;;;6.25;;
9108;SDS011;4590;51.462;6.692;2022-08-01T02:51:03;10.18;;;7.47;;
9108;SDS011;4590;51.462;6.692;2022-08-01T02:53:31;9.20;;;6.93;;
9108;SDS011;4590;51.462;6.692;2022-08-01T02:56:01;11.85;;;7.25;;
9108;SDS011;4590;51.462;6.692;2022-08-01T02:58:29;10.88;;;7.50;;
9108;SDS011;4590;51.462;6.692;2022-08-01T03:03:22;12.43;;;8.52;;
9108;SDS011;4590;51.462;6.692;2022-08-01T03:05:48;10.60;;;7.25;;
9108;SDS011;4590;51.462;6.692;2022-08-01T03:10:40;13.32;;;7.55;;
9108;SDS011;4590;51.462;6.692;2022-08-01T03:13:09;10.93;;;8.43;;
9108;SDS011;4590;51.462;6.692;2022-08-01T03:15:37;11.80;;;7.97;;
9108;SDS011;4590;51.462;6.692;2022-08-01T03:18:05;11.32;;;8.23;;
9108;SDS011;4590;51.462;6.692;2022-08-01T03:20:32;15.27;;;8.02;;
9108;SDS011;4590;51.462;6.692;2022-08-01T03:22:59;12.38;;;8.10;;
9108;SDS011;4590;51.462;6.692;2022-08-01T03:25:28;12.05;;;8.75;;
9108;SDS011;4590;51.462;6.692;2022-08-01T03:27:56;9.30;;;7.38;;
9108;SDS011;4590;51.462;6.692;2022-08-01T03:30:24;14.63;;;8.65;;
9108;SDS011;4590;51.462;6.692;2022-08-01T03:32:51;13.70;;;8.43;;
9108;SDS011;4590;51.462;6.692;2022-08-01T03:37:44;11.90;;;8.23;;
9108;SDS011;4590;51.462;6.692;2022-08-01T03:40:13;11.85;;;8.10;;
9108;SDS011;4590;51.462;6.692;2022-08-01T03:42:46;10.50;;;7.38;;
9108;SDS011;4590;51.462;6.692;2022-08-01T03:45:25;13.50;;;8.18;;
9108;SDS011;4590;51.462;6.692;2022-08-01T03:47:55;12.93;;;7.80;;
9108;SDS011;4590;51.462;6.692;2022-08-01T03:50:24;11.77;;;7.85;;
9108;SDS011;4590;51.462;6.692;2022-08-01T03:52:52;13.38;;;8.63;;
9108;SDS011;4590;51.462;6.692;2022-08-01T03:55:19;12.98;;;8.55;;
9108;SDS011;4590;51.462;6.692;2022-08-01T03:57:46;10.48;;;8.43;;
9108;SDS011;4590;51.462;6.692;2022-08-01T04:00:13;13.98;;;8.02;;
9108;SDS011;4590;51.462;6.692;2022-08-01T04:02:43;11.65;;;7.95;;
9108;SDS011;4590;51.462;6.692;2022-08-01T04:05:10;12.75;;;8.73;;
9108;SDS011;4590;51.462;6.692;2022-08-01T04:10:01;11.15;;;6.95;;
9108;SDS011;4590;51.462;6.692;2022-08-01T04:14:52;9.90;;;7.47;;
9108;SDS011;4590;51.462;6.692;2022-08-01T04:17:17;10.98;;;7.18;;
9108;SDS011;4590;51.462;6.692;2022-08-01T04:22:09;10.23;;;6.70;;
9108;SDS011;4590;51.462;6.692;2022-08-01T04:24:36;10.07;;;7.05;;
9108;SDS011;4590;51.462;6.692;2022-08-01T04:29:29;10.13;;;7.35;;
9108;SDS011;4590;51.462;6.692;2022-08-01T04:31:57;12.00;;;7.78;;
9108;SDS011;4590;51.462;6.692;2022-08-01T04:34:25;11.68;;;8.18;;
9108;SDS011;4590;51.462;6.692;2022-08-01T04:36:55;12.52;;;8.25;;
9108;SDS011;4590;51.462;6.692;2022-08-01T04:39:23;11.48;;;7.95;;
9108;SDS011;4590;51.462;6.692;2022-08-01T04:41:52;9.93;;;7.07;;
9108;SDS011;4590;51.462;6.692;2022-08-01T04:44:21;10.65;;;6.95;;
9108;SDS011;4590;51.462;6.692;2022-08-01T04:46:47;10.60;;;7.38;;
9108;SDS011;4590;51.462;6.692;2022-08-01T04:49:14;9.40;;;6.70;;
9108;SDS011;4590;51.462;6.692;2022-08-01T04:51:54;11.88;;;6.65;;
9108;SDS011;4590;51.462;6.692;2022-08-01T04:54:25;10.45;;;6.95;;
9108;SDS011;4590;51.462;6.692;2022-08-01T04:56:54;11.07;;;6.95;;
9108;SDS011;4590;51.462;6.692;2022-08-01T04:59:24;11.02;;;6.72;;
9108;SDS011;4590;51.462;6.692;2022-08-01T05:02:08;10.45;;;7.80;;
9108;SDS011;4590;51.462;6.692;2022-08-01T05:04:38;12.00;;;7.30;;
9108;SDS011;4590;51.462;6.692;2022-08-01T05:07:04;10.98;;;7.20;;
9108;SDS011;4590;51.462;6.692;2022-08-01T05:11:56;11.07;;;6.82;;
9108;SDS011;4590;51.462;6.692;2022-08-01T05:14:23;10.30;;;7.25;;
9108;SDS011;4590;51.462;6.692;2022-08-01T05:16:50;10.77;;;7.32;;
9108;SDS011;4590;51.462;6.692;2022-08-01T05:21:41;8.98;;;6.38;;
9108;SDS011;4590;51.462;6.692;2022-08-01T05:26:32;8.67;;;6.47;;
9108;SDS011;4590;51.462;6.692;2022-08-01T05:28:57;8.93;;;6.72;;
9108;SDS011;4590;51.462;6.692;2022-08-01T05:33:48;9.97;;;6.10;;
9108;SDS011;4590;51.462;6.692;2022-08-01T05:38:39;8.82;;;5.95;;
9108;SDS011;4590;51.462;6.692;2022-08-01T05:43:29;8.17;;;6.13;;
9108;SDS011;4590;51.462;6.692;2022-08-01T05:45:55;8.80;;;6.45;;
9108;SDS011;4590;51.462;6.692;2022-08-01T05:50:45;9.30;;;6.30;;
9108;SDS011;4590;51.462;6.692;2022-08-01T05:53:12;9.15;;;6.25;;
9108;SDS011;4590;51.462;6.692;2022-08-01T05:58:03;8.47;;;5.20;;
9108;SDS011;4590;51.462;6.692;2022-08-01T06:02:53;8.68;;;5.53;;
9108;SDS011;4590;51.462;6.692;2022-08-01T06:07:44;7.70;;;5.23;;
9108;SDS011;4590;51.462;6.692;2022-08-01T06:12:35;9.00;;;4.82;;
9108;SDS011;4590;51.462;6.692;2022-08-01T06:15:01;8.65;;;5.32;;
9108;SDS011;4590;51.462;6.692;2022-08-01T06:17:28;8.73;;;4.90;;
9108;SDS011;4590;51.462;6.692;2022-08-01T06:22:18;7.70;;;5.80;;
9108;SDS011;4590;51.462;6.692;2022-08-01T06:27:09;8.80;;;5.90;;
9108;SDS011;4590;51.462;6.692;2022-08-01T06:32:00;9.37;;;6.13;;
9108;SDS011;4590;51.462;6.692;2022-08-01T06:36:50;7.65;;;5.15;;
9108;SDS011;4590;51.462;6.692;2022-08-01T06:41:41;10.67;;;5.37;;
9108;SDS011;4590;51.462;6.692;2022-08-01T06:46:31;7.63;;;5.20;;
9108;SDS011;4590;51.462;6.692;2022-08-01T06:51:22;8.40;;;5.30;;
9108;SDS011;4590;51.462;6.692;2022-08-01T06:53:47;11.27;;;4.68;;
9108;SDS011;4590;51.462;6.692;2022-08-01T06:56:12;6.30;;;4.35;;
9108;SDS011;4590;51.462;6.692;2022-08-01T06:58:38;5.65;;;3.92;;
9108;SDS011;4590;51.462;6.692;2022-08-01T07:01:03;5.60;;;4.00;;
9108;SDS011;4590;51.462;6.692;2022-08-01T07:03:33;5.10;;;3.72;;
9108;SDS011;4590;51.462;6.692;2022-08-01T07:05:59;5.93;;;3.40;;
9108;SDS011;4590;51.462;6.692;2022-08-01T07:08:24;5.20;;;3.63;;
9108;SDS011;4590;51.462;6.692;2022-08-01T07:10:50;4.97;;;3.50;;
9108;SDS011;4590;51.462;6.692;2022-08-01T07:13:15;4.70;;;3.17;;
9108;SDS011;4590;51.462;6.692;2022-08-01T07:15:45;6.47;;;3.85;;
9108;SDS011;4590;51.462;6.692;2022-08-01T07:18:11;4.38;;;3.17;;
9108;SDS011;4590;51.462;6.692;2022-08-01T07:20:36;4.57;;;3.40;;
9108;SDS011;4590;51.462;6.692;2022-08-01T07:23:02;6.28;;;3.53;;
9108;SDS011;4590;51.462;6.692;2022-08-01T07:25:27;4.70;;;3.20;;
9108;SDS011;4590;51.462;6.692;2022-08-01T07:27:52;3.80;;;2.50;;
9108;SDS011;4590;51.462;6.692;2022-08-01T07:30:18;3.25;;;2.30;;
9108;SDS011;4590;51.462;6.692;2022-08-01T07:32:43;3.70;;;2.55;;
9108;SDS011;4590;51.462;6.692;2022-08-01T07:35:08;5.00;;;2.47;;
9108;SDS011;4590;51.462;6.692;2022-08-01T07:37:34;5.70;;;2.85;;
9108;SDS011;4590;51.462;6.692;2022-08-01T07:39:59;3.70;;;2.40;;
9108;SDS011;4590;51.462;6.692;2022-08-01T07:42:24;4.97;;;2.78;;
9108;SDS011;4590;51.462;6.692;2022-08-01T07:44:50;4.35;;;2.70;;
9108;SDS011;4590;51.462;6.692;2022-08-01T07:47:15;4.20;;;2.88;;
9108;SDS011;4590;51.462;6.692;2022-08-01T07:49:40;4.35;;;2.90;;
9108;SDS011;4590;51.462;6.692;2022-08-01T07:52:06;5.90;;;3.00;;
9108;SDS011;4590;51.462;6.692;2022-08-01T07:54:32;3.90;;;2.72;;
9108;SDS011;4590;51.462;6.692;2022-08-01T07:56:57;4.05;;;2.40;;
9108;SDS011;4590;51.462;6.692;2022-08-01T07:59:22;4.85;;;2.15;;
9108;SDS011;4590;51.462;6.692;2022-08-01T08:01:49;2.78;;;1.80;;
9108;SDS011;4590;51.462;6.692;2022-08-01T08:04:15;3.05;;;2.00;;
9108;SDS011;4590;51.462;6.692;2022-08-01T08:06:41;2.65;;;1.50;;
9108;SDS011;4590;51.462;6.692;2022-08-01T08:09:06;2.00;;;1.17;;
9108;SDS011;4590;51.462;6.692;2022-08-01T08:11:32;1.90;;;1.20;;
9108;SDS011;4590;51.462;6.692;2022-08-01T08:13:57;2.85;;;1.20;;
9108;SDS011;4590;51.462;6.692;2022-08-01T08:16:22;2.22;;;1.10;;
9108;SDS011;4590;51.462;6.692;2022-08-01T08:18:48;1.95;;;1.10;;
9108;SDS011;4590;51.462;6.692;2022-08-01T08:21:13;1.55;;;0.80;;
9108;SDS011;4590;51.462;6.692;2022-08-01T08:23:38;1.48;;;0.95;;
9108;SDS011;4590;51.462;6.692;2022-08-01T08:26:22;1.50;;;1.10;;
9108;SDS011;4590;51.462;6.692;2022-08-01T08:28:49;2.28;;;0.90;;
9108;SDS011;4590;51.462;6.692;2022-08-01T08:31:14;1.50;;;0.90;;
9108;SDS011;4590;51.462;6.692;2022-08-01T08:33:39;1.42;;;0.77;;
9108;SDS011;4590;51.462;6.692;2022-08-01T08:36:04;1.17;;;0.85;;
9108;SDS011;4590;51.462;6.692;2022-08-01T08:38:30;1.88;;;1.05;;
9108;SDS011;4590;51.462;6.692;2022-08-01T08:40:56;1.40;;;0.90;;
9108;SDS011;4590;51.462;6.692;2022-08-01T08:43:21;1.50;;;1.00;;
9108;SDS011;4590;51.462;6.692;2022-08-01T08:45:49;2.28;;;1.00;;
9108;SDS011;4590;51.462;6.692;2022-08-01T08:48:15;2.03;;;1.00;;
9108;SDS011;4590;51.462;6.692;2022-08-01T08:50:42;1.50;;;1.10;;
9108;SDS011;4590;51.462;6.692;2022-08-01T08:53:10;1.77;;;0.90;;
9108;SDS011;4590;51.462;6.692;2022-08-01T08:55:39;1.55;;;0.98;;
9108;SDS011;4590;51.462;6.692;2022-08-01T08:58:09;5.40;;;1.20;;
9108;SDS011;4590;51.462;6.692;2022-08-01T09:00:40;2.03;;;1.30;;
9108;SDS011;4590;51.462;6.692;2022-08-01T09:03:05;2.38;;;1.50;;
9108;SDS011;4590;51.462;6.692;2022-08-01T09:05:31;1.70;;;1.10;;
9108;SDS011;4590;51.462;6.692;2022-08-01T09:07:56;2.03;;;1.27;;
9108;SDS011;4590;51.462;6.692;2022-08-01T09:10:21;2.53;;;1.30;;
9108;SDS011;4590;51.462;6.692;2022-08-01T09:13:06;2.00;;;1.13;;
9108;SDS011;4590;51.462;6.692;2022-08-01T09:15:46;1.60;;;0.95;;
9108;SDS011;4590;51.462;6.692;2022-08-01T09:18:25;1.40;;;1.00;;
9108;SDS011;4590;51.462;6.692;2022-08-01T09:21:18;2.22;;;1.10;;
9108;SDS011;4590;51.462;6.692;2022-08-01T09:26:14;1.65;;;0.82;;
9108;SDS011;4590;51.462;6.692;2022-08-01T09:28:42;3.05;;;0.90;;
9108;SDS011;4590;51.462;6.692;2022-08-01T09:31:09;1.50;;;1.05;;
9108;SDS011;4590;51.462;6.692;2022-08-01T09:33:49;2.20;;;1.15;;
9108;SDS011;4590;51.462;6.692;2022-08-01T09:36:20;1.40;;;1.00;;
9108;SDS011;4590;51.462;6.692;2022-08-01T09:38:46;1.50;;;1.15;;
9108;SDS011;4590;51.462;6.692;2022-08-01T09:41:12;1.63;;;1.23;;
9108;SDS011;4590;51.462;6.692;2022-08-01T09:43:37;1.38;;;1.10;;
9108;SDS011;4590;51.462;6.692;2022-08-01T09:46:09;1.73;;;1.20;;
9108;SDS011;4590;51.462;6.692;2022-08-01T09:48:38;1.60;;;1.13;;
9108;SDS011;4590;51.462;6.692;2022-08-01T09:51:27;1.80;;;1.10;;
9108;SDS011;4590;51.462;6.692;2022-08-01T09:53:55;1.60;;;1.02;;
9108;SDS011;4590;51.462;6.692;2022-08-01T09:56:21;1.23;;;0.85;;
9108;SDS011;4590;51.462;6.692;2022-08-01T10:01:22;1.55;;;0.80;;
9108;SDS011;4590;51.462;6.692;2022-08-01T10:04:10;1.20;;;0.65;;
9108;SDS011;4590;51.462;6.692;2022-08-01T10:06:39;0.90;;;0.70;;
9108;SDS011;4590;51.462;6.692;2022-08-01T10:09:07;1.60;;;0.80;;
9108;SDS011;4590;51.462;6.692;2022-08-01T10:11:32;1.73;;;0.88;;
9108;SDS011;4590;51.462;6.692;2022-08-01T10:14:01;1.05;;;0.70;;
9108;SDS011;4590;51.462;6.692;2022-08-01T10:16:27;1.00;;;0.65;;
9108;SDS011;4590;51.462;6.692;2022-08-01T10:18:53;1.45;;;0.80;;
9108;SDS011;4590;51.462;6.692;2022-08-01T10:21:19;1.70;;;0.70;;
9108;SDS011;4590;51.462;6.692;2022-08-01T10:23:45;0.95;;;0.60;;
9108;SDS011;4590;51.462;6.692;2022-08-01T10:26:12;0.80;;;0.55;;
9108;SDS011;4590;51.462;6.692;2022-08-01T10:28:39;1.70;;;0.70;;
9108;SDS011;4590;51.462;6.692;2022-08-01T10:31:07;1.20;;;0.77;;
9108;SDS011;4590;51.462;6.692;2022-08-01T10:33:32;1.17;;;0.70;;
9108;SDS011;4590;51.462;6.692;2022-08-01T10:36:00;1.95;;;1.00;;
9108;SDS011;4590;51.462;6.692;2022-08-01T10:38:27;1.33;;;0.50;;
9108;SDS011;4590;51.462;6.692;2022-08-01T10:40:53;1.15;;;0.52;;
9108;SDS011;4590;51.462;6.692;2022-08-01T10:43:19;1.00;;;0.50;;
9108;SDS011;4590;51.462;6.692;2022-08-01T10:45:45;1.85;;;0.60;;
9108;SDS011;4590;51.462;6.692;2022-08-01T10:48:26;2.35;;;0.60;;
9108;SDS011;4590;51.462;6.692;2022-08-01T10:50:58;0.50;;;0.40;;
9108;SDS011;4590;51.462;6.692;2022-08-01T10:53:26;0.60;;;0.32;;
9108;SDS011;4590;51.462;6.692;2022-08-01T10:55:57;0.40;;;0.30;;
9108;SDS011;4590;51.462;6.692;2022-08-01T11:01:43;0.70;;;0.40;;
9108;SDS011;4590;51.462;6.692;2022-08-01T11:03:59;0.90;;;0.45;;
9108;SDS011;4590;51.462;6.692;2022-08-01T11:09:05;0.60;;;0.40;;
9108;SDS011;4590;51.462;6.692;2022-08-01T11:11:30;0.50;;;0.30;;
9108;SDS011;4590;51.462;6.692;2022-08-01T11:16:26;0.57;;;0.30;;
9108;SDS011;4590;51.462;6.692;2022-08-01T11:18:52;0.90;;;0.60;;
9108;SDS011;4590;51.462;6.692;2022-08-01T11:21:18;1.20;;;0.43;;
9108;SDS011;4590;51.462;6.692;2022-08-01T11:23:48;0.75;;;0.50;;
9108;SDS011;4590;51.462;6.692;2022-08-01T11:26:15;0.70;;;0.30;;
9108;SDS011;4590;51.462;6.692;2022-08-01T11:28:42;0.70;;;0.40;;
9108;SDS011;4590;51.462;6.692;2022-08-01T11:38:35;0.70;;;0.43;;
9108;SDS011;4590;51.462;6.692;2022-08-01T11:41:12;0.68;;;0.40;;
9108;SDS011;4590;51.462;6.692;2022-08-01T11:44:21;1.30;;;0.43;;
9108;SDS011;4590;51.462;6.692;2022-08-01T11:54:57;1.30;;;0.70;;
9108;SDS011;4590;51.462;6.692;2022-08-01T11:57:32;0.95;;;0.68;;
9108;SDS011;4590;51.462;6.692;2022-08-01T12:02:31;1.10;;;0.70;;
9108;SDS011;4590;51.462;6.692;2022-08-01T12:05:00;1.00;;;0.65;;
9108;SDS011;4590;51.462;6.692;2022-08-01T12:07:28;0.98;;;0.75;;
9108;SDS011;4590;51.462;6.692;2022-08-01T12:12:29;2.55;;;0.80;;
9108;SDS011;4590;51.462;6.692;2022-08-01T12:14:56;1.20;;;0.68;;
9108;SDS011;4590;51.462;6.692;2022-08-01T12:19:55;0.60;;;0.38;;
9108;SDS011;4590;51.462;6.692;2022-08-01T12:22:21;1.48;;;0.43;;
9108;SDS011;4590;51.462;6.692;2022-08-01T12:24:48;1.10;;;0.50;;
9108;SDS011;4590;51.462;6.692;2022-08-01T12:27:23;0.70;;;0.50;;
9108;SDS011;4590;51.462;6.692;2022-08-01T12:29:50;1.73;;;0.50;;
9108;SDS011;4590;51.462;6.692;2022-08-01T12:32:34;0.80;;;0.40;;
9108;SDS011;4590;51.462;6.692;2022-08-01T12:37:38;0.57;;;0.40;;
9108;SDS011;4590;51.462;6.692;2022-08-01T12:40:15;1.00;;;0.60;;
9108;SDS011;4590;51.462;6.692;2022-08-01T12:42:43;1.40;;;0.60;;
9108;SDS011;4590;51.462;6.692;2022-08-01T12:45:09;0.70;;;0.50;;
9108;SDS011;4590;51.462;6.692;2022-08-01T12:47:37;0.85;;;0.70;;
9108;SDS011;4590;51.462;6.692;2022-08-01T12:50:05;2.10;;;0.85;;
9108;SDS011;4590;51.462;6.692;2022-08-01T12:52:32;0.82;;;0.43;;
9108;SDS011;4590;51.462;6.692;2022-08-01T12:55:02;1.10;;;0.68;;
9108;SDS011;4590;51.462;6.692;2022-08-01T12:57:31;0.82;;;0.50;;
9108;SDS011;4590;51.462;6.692;2022-08-01T13:00:09;1.63;;;0.90;;
9108;SDS011;4590;51.462;6.692;2022-08-01T13:02:46;1.10;;;0.60;;
9108;SDS011;4590;51.462;6.692;2022-08-01T13:05:13;1.23;;;0.60;;
9108;SDS011;4590;51.462;6.692;2022-08-01T13:10:23;2.03;;;0.50;;
9108;SDS011;4590;51.462;6.692;2022-08-01T13:12:51;0.80;;;0.60;;
9108;SDS011;4590;51.462;6.692;2022-08-01T13:15:28;2.28;;;0.70;;
9108;SDS011;4590;51.462;6.692;2022-08-01T13:17:57;1.90;;;0.73;;
9108;SDS011;4590;51.462;6.692;2022-08-01T13:20:24;1.30;;;0.70;;
9108;SDS011;4590;51.462;6.692;2022-08-01T13:22:54;1.75;;;0.75;;
9108;SDS011;4590;51.462;6.692;2022-08-01T13:25:19;1.52;;;0.70;;
9108;SDS011;4590;51.462;6.692;2022-08-01T13:27:45;1.35;;;0.85;;
9108;SDS011;4590;51.462;6.692;2022-08-01T13:30:11;1.63;;;0.85;;
9108;SDS011;4590;51.462;6.692;2022-08-01T13:32:40;2.05;;;0.70;;
9108;SDS011;4590;51.462;6.692;2022-08-01T13:35:08;1.77;;;0.60;;
9108;SDS011;4590;51.462;6.692;2022-08-01T13:37:41;1.55;;;0.90;;
9108;SDS011;4590;51.462;6.692;2022-08-01T13:40:08;1.65;;;0.80;;
9108;SDS011;4590;51.462;6.692;2022-08-01T13:42:34;3.60;;;0.80;;
9108;SDS011;4590;51.462;6.692;2022-08-01T13:45:00;1.77;;;0.90;;
9108;SDS011;4590;51.462;6.692;2022-08-01T13:47:25;1.42;;;0.70;;
9108;SDS011;4590;51.462;6.692;2022-08-01T13:49:51;1.95;;;0.90;;
9108;SDS011;4590;51.462;6.692;2022-08-01T13:52:16;2.60;;;0.90;;
9108;SDS011;4590;51.462;6.692;2022-08-01T13:54:41;3.10;;;0.82;;
9108;SDS011;4590;51.462;6.692;2022-08-01T13:57:07;3.13;;;1.00;;
9108;SDS011;4590;51.462;6.692;2022-08-01T13:59:34;3.00;;;0.85;;
9108;SDS011;4590;51.462;6.692;2022-08-01T14:01:59;3.88;;;1.00;;
9108;SDS011;4590;51.462;6.692;2022-08-01T14:04:25;1.42;;;0.80;;
9108;SDS011;4590;51.462;6.692;2022-08-01T14:06:50;1.00;;;0.73;;
9108;SDS011;4590;51.462;6.692;2022-08-01T14:09:16;2.85;;;0.77;;
9108;SDS011;4590;51.462;6.692;2022-08-01T14:11:42;1.45;;;0.90;;
9108;SDS011;4590;51.462;6.692;2022-08-01T14:14:07;1.20;;;0.60;;
9108;SDS011;4590;51.462;6.692;2022-08-01T14:16:33;2.15;;;1.10;;
9108;SDS011;4590;51.462;6.692;2022-08-01T14:18:59;1.23;;;0.85;;
9108;SDS011;4590;51.462;6.692;2022-08-01T14:21:24;1.23;;;0.70;;
9108;SDS011;4590;51.462;6.692;2022-08-01T14:23:49;2.85;;;0.80;;
9108;SDS011;4590;51.462;6.692;2022-08-01T14:26:15;1.30;;;0.70;;
9108;SDS011;4590;51.462;6.692;2022-08-01T14:28:40;1.63;;;0.60;;
9108;SDS011;4590;51.462;6.692;2022-08-01T14:31:05;1.67;;;0.75;;
9108;SDS011;4590;51.462;6.692;2022-08-01T14:33:31;1.33;;;0.80;;
9108;SDS011;4590;51.462;6.692;2022-08-01T14:35:57;1.90;;;0.70;;
9108;SDS011;4590;51.462;6.692;2022-08-01T14:38:22;1.25;;;0.70;;
9108;SDS011;4590;51.462;6.692;2022-08-01T14:40:48;2.28;;;0.80;;
9108;SDS011;4590;51.462;6.692;2022-08-01T14:43:16;1.75;;;0.70;;
9108;SDS011;4590;51.462;6.692;2022-08-01T14:45:42;1.90;;;0.80;;
9108;SDS011;4590;51.462;6.692;2022-08-01T14:48:07;1.42;;;0.70;;
9108;SDS011;4590;51.462;6.692;2022-08-01T14:50:32;1.27;;;0.60;;
9108;SDS011;4590;51.462;6.692;2022-08-01T14:52:57;1.77;;;0.75;;
9108;SDS011;4590;51.462;6.692;2022-08-01T14:55:23;0.90;;;0.50;;
9108;SDS011;4590;51.462;6.692;2022-08-01T14:57:51;1.55;;;0.68;;
9108;SDS011;4590;51.462;6.692;2022-08-01T15:00:16;1.58;;;0.60;;
9108;SDS011;4590;51.462;6.692;2022-08-01T15:02:42;1.55;;;0.60;;
9108;SDS011;4590;51.462;6.692;2022-08-01T15:05:08;0.90;;;0.50;;
9108;SDS011;4590;51.462;6.692;2022-08-01T15:07:34;1.67;;;0.57;;
9108;SDS011;4590;51.462;6.692;2022-08-01T15:10:00;1.75;;;0.68;;
9108;SDS011;4590;51.462;6.692;2022-08-01T15:12:25;1.65;;;0.60;;
9108;SDS011;4590;51.462;6.692;2022-08-01T15:14:51;1.13;;;0.60;;
9108;SDS011;4590;51.462;6.692;2022-08-01T15:17:21;1.20;;;0.60;;
9108;SDS011;4590;51.462;6.692;2022-08-01T15:19:49;1.85;;;0.63;;
9108;SDS011;4590;51.462;6.692;2022-08-01T15:22:17;2.17;;;0.50;;
9108;SDS011;4590;51.462;6.692;2022-08-01T15:24:42;1.25;;;0.52;;
9108;SDS011;4590;51.462;6.692;2022-08-01T15:27:08;1.00;;;0.50;;
9108;SDS011;4590;51.462;6.692;2022-08-01T15:29:34;1.02;;;0.52;;
9108;SDS011;4590;51.462;6.692;2022-08-01T15:32:00;1.27;;;0.50;;
9108;SDS011;4590;51.462;6.692;2022-08-01T15:34:26;2.55;;;0.70;;
9108;SDS011;4590;51.462;6.692;2022-08-01T15:36:52;1.48;;;0.65;;
9108;SDS011;4590;51.462;6.692;2022-08-01T15:39:17;1.95;;;0.70;;
9108;SDS011;4590;51.462;6.692;2022-08-01T15:41:42;2.03;;;0.70;;
9108;SDS011;4590;51.462;6.692;2022-08-01T15:44:08;1.20;;;0.60;;
9108;SDS011;4590;51.462;6.692;2022-08-01T15:46:33;2.25;;;0.70;;
9108;SDS011;4590;51.462;6.692;2022-08-01T15:49:02;2.28;;;0.80;;
9108;SDS011;4590;51.462;6.692;2022-08-01T15:51:29;1.10;;;0.65;;
9108;SDS011;4590;51.462;6.692;2022-08-01T15:53:54;1.48;;;0.60;;
9108;SDS011;4590;51.462;6.692;2022-08-01T15:56:20;1.63;;;0.60;;
9108;SDS011;4590;51.462;6.692;2022-08-01T15:58:45;1.38;;;0.68;;
9108;SDS011;4590;51.462;6.692;2022-08-01T16:01:11;1.10;;;0.70;;
9108;SDS011;4590;51.462;6.692;2022-08-01T16:03:36;1.80;;;0.70;;
9108;SDS011;4590;51.462;6.692;2022-08-01T16:06:01;1.27;;;0.60;;
9108;SDS011;4590;51.462;6.692;2022-08-01T16:08:27;1.80;;;0.80;;
9108;SDS011;4590;51.462;6.692;2022-08-01T16:10:52;1.52;;;0.73;;
9108;SDS011;4590;51.462;6.692;2022-08-01T16:13:17;2.47;;;0.80;;
9108;SDS011;4590;51.462;6.692;2022-08-01T16:15:42;0.95;;;0.60;;
9108;SDS011;4590;51.462;6.692;2022-08-01T16:18:08;1.17;;;0.70;;
9108;SDS011;4590;51.462;6.692;2022-08-01T16:20:36;1.35;;;0.68;;
9108;SDS011;4590;51.462;6.692;2022-08-01T16:23:02;2.03;;;0.63;;
9108;SDS011;4590;51.462;6.692;2022-08-01T16:25:27;2.75;;;0.73;;
9108;SDS011;4590;51.462;6.692;2022-08-01T16:27:53;1.27;;;0.60;;
9108;SDS011;4590;51.462;6.692;2022-08-01T16:30:18;2.33;;;0.70;;
9108;SDS011;4590;51.462;6.692;2022-08-01T16:32:43;1.60;;;0.68;;
9108;SDS011;4590;51.462;6.692;2022-08-01T16:35:09;2.85;;;0.60;;
9108;SDS011;4590;51.462;6.692;2022-08-01T16:37:34;1.10;;;0.70;;
9108;SDS011;4590;51.462;6.692;2022-08-01T16:40:00;2.10;;;0.60;;
9108;SDS011;4590;51.462;6.692;2022-08-01T16:42:25;2.42;;;1.02;;
9108;SDS011;4590;51.462;6.692;2022-08-01T16:44:50;1.50;;;0.80;;
9108;SDS011;4590;51.462;6.692;2022-08-01T16:47:16;1.40;;;0.70;;
9108;SDS011;4590;51.462;6.692;2022-08-01T16:49:41;2.00;;;0.60;;
9108;SDS011;4590;51.462;6.692;2022-08-01T16:52:07;1.05;;;0.63;;
9108;SDS011;4590;51.462;6.692;2022-08-01T16:54:32;2.38;;;0.70;;
9108;SDS011;4590;51.462;6.692;2022-08-01T16:56:58;1.13;;;0.60;;
9108;SDS011;4590;51.462;6.692;2022-08-01T16:59:24;1.38;;;0.60;;
9108;SDS011;4590;51.462;6.692;2022-08-01T17:01:50;1.70;;;0.73;;
9108;SDS011;4590;51.462;6.692;2022-08-01T17:04:15;1.17;;;0.50;;
9108;SDS011;4590;51.462;6.692;2022-08-01T17:06:40;1.67;;;0.60;;
9108;SDS011;4590;51.462;6.692;2022-08-01T17:09:06;1.50;;;0.60;;
9108;SDS011;4590;51.462;6.692;2022-08-01T17:11:33;1.17;;;0.60;;
9108;SDS011;4590;51.462;6.692;2022-08-01T17:13:58;1.45;;;0.60;;
9108;SDS011;4590;51.462;6.692;2022-08-01T17:16:23;2.72;;;0.70;;
9108;SDS011;4590;51.462;6.692;2022-08-01T17:18:49;1.25;;;0.65;;
9108;SDS011;4590;51.462;6.692;2022-08-01T17:21:14;1.67;;;0.80;;
9108;SDS011;4590;51.462;6.692;2022-08-01T17:23:39;1.75;;;0.70;;
9108;SDS011;4590;51.462;6.692;2022-08-01T17:26:05;3.13;;;0.90;;
9108;SDS011;4590;51.462;6.692;2022-08-01T17:28:30;2.75;;;0.80;;
9108;SDS011;4590;51.462;6.692;2022-08-01T17:30:55;3.55;;;0.65;;
9108;SDS011;4590;51.462;6.692;2022-08-01T17:33:21;1.25;;;0.70;;
9108;SDS011;4590;51.462;6.692;2022-08-01T17:35:46;2.22;;;0.70;;
9108;SDS011;4590;51.462;6.692;2022-08-01T17:38:12;2.30;;;1.00;;